Terminal Aerodrome Forecast
Issued by NWS

Home | Current Version | Previous Version | Text Only | Print | Product List | Glossary On
Versions: 1 2 3 4 5 6 7 8 9 10 11 12 13 14 15 16 17 18 19 20 21 22
000
FTUS43 KGRR 211740
TAFLAN
TAF
KLAN 211740Z 2118/2218 14008KT P6SM FEW080 SCT100 BKN120
     FM211900 11008KT 4SM -SHRA OVC050
     FM212100 10007KT 2SM SHRA BR OVC025
     FM220000 09008KT 4SM -SHRA BR OVC015
     FM220200 09008KT 4SM -DZ OVC015
     FM220900 VRB04KT 2SM BR VCSH OVC003
     FM221500 VRB04KT P6SM BKN008=

USA.gov is the U.S. government's official web portal to all federal, state and local government web resources and services.